Algeciras Jet — 5BLY2 — position and weather

sailwx.info

Track history (hours):
 
Tides and Currents Weather Stations Pressure Air Temp Water Temp Dewpoint Dewpoint Depression Visibility Wind Speed Wind Dir Waves Ship Positions

Algeciras Jet

Last reported at 2018-Jun-19 00:49 UTC. Time now 2018-Jun-21 17:35 UTC.
Position N 36°01' W 005°36'.

Length 60 m; draft 2.2 m.

Type: High speed craft. MMSI: 209936000.

Date/timePositionNaut miles runAvg speedWind from/ knotsBaromVisibWave heightAir tempDewpointWater temp
2018-Jun-19 00:49N 36°01' W 005°36'0 0.0
2018-Jun-18 21:57N 36°01' W 005°36'11 5.2
2018-Jun-18 19:45N 35°53' W 005°46'520.1
2018-Jun-18 19:30N 35°57' W 005°43'713.7
2018-Jun-18 19:01N 36°01' W 005°36'0 0.1
2018-Jun-18 18:15N 36°01' W 005°36'0 0.0
2018-Jun-18 14:14N 36°00' W 005°36'2 0.3
2018-Jun-18 07:54N 35°59' W 005°37'2 1.0
2018-Jun-18 06:00N 36°01' W 005°36'0 0.0
2018-Jun-18 05:30N 36°01' W 005°36'0 0.0
2018-Jun-18 05:00N 36°01' W 005°36'0 0.0
2018-Jun-17 23:31N 36°01' W 005°36'0 0.0
2018-Jun-17 21:59N 36°01' W 005°36'1120.8
2018-Jun-17 21:26N 35°53' W 005°46'1 0.4
2018-Jun-17 19:48N 35°52' W 005°47'619.5
2018-Jun-17 19:30N 35°57' W 005°43'712.5
2018-Jun-17 18:58N 36°01' W 005°36'0 0.0
2018-Jun-17 18:30N 36°01' W 005°36'3 1.0
2018-Jun-17 15:22N 35°59' W 005°39'3 9.0
2018-Jun-17 15:00N 36°01' W 005°36'0 0.0
2018-Jun-17 14:31N 36°01' W 005°36'2 3.7
2018-Jun-17 14:01N 35°59' W 005°38'11 5.6
2018-Jun-17 12:02N 35°51' W 005°47'122.8
2018-Jun-17 11:59N 35°52' W 005°47'1218.4
2018-Jun-17 11:19N 36°01' W 005°36'0 0.0
2018-Jun-17 10:21N 36°01' W 005°36'13 5.8
2018-Jun-17 08:04N 35°51' W 005°47'221.2
2018-Jun-17 07:59N 35°53' W 005°47'919.2
2018-Jun-17 07:30N 35°59' W 005°38'3 5.0
2018-Jun-17 07:00N 36°01' W 005°36'0 0.0
2018-Jun-17 06:31N 36°01' W 005°36'0 0.0
2018-Jun-17 05:57N 36°01' W 005°36'0 0.0
2018-Jun-17 05:27N 36°01' W 005°36'0 0.0
2018-Jun-17 05:00N 36°01' W 005°36'0 0.0
2018-Jun-17 04:21N 36°01' W 005°36'0 0.0
2018-Jun-17 03:57N 36°01' W 005°36'0 0.0
2018-Jun-17 03:27N 36°01' W 005°36'0 0.0
2018-Jun-17 02:57N 36°01' W 005°36'0 0.0
2018-Jun-17 02:27N 36°01' W 005°36'0 0.0
2018-Jun-17 01:57N 36°01' W 005°36'0 0.0
2018-Jun-17 01:27N 36°01' W 005°36'0 0.0
2018-Jun-17 00:51N 36°01' W 005°36'0 0.0
2018-Jun-17 00:26N 36°01' W 005°36'0 0.0
2018-Jun-16 23:57N 36°01' W 005°36'0 0.0
2018-Jun-16 23:27N 36°01' W 005°36'0 0.0
2018-Jun-16 22:57N 36°01' W 005°36'0 0.0
2018-Jun-16 22:27N 36°01' W 005°36'2 4.3
2018-Jun-16 22:00N 35°59' W 005°37'11 4.7
2018-Jun-16 19:45N 35°52' W 005°47'621.6
2018-Jun-16 19:30N 35°57' W 005°44'714.6
2018-Jun-16 19:00N 36°01' W 005°36'0 0.0
2018-Jun-16 18:31N 36°01' W 005°36'7 2.3
2018-Jun-16 15:39N 35°57' W 005°43'322.4
2018-Jun-16 15:30N 35°58' W 005°39'3 6.8
2018-Jun-16 15:00N 36°01' W 005°36'0 0.0
2018-Jun-16 14:16N 36°01' W 005°36'0 0.0
2018-Jun-16 00:20N 36°01' W 005°36'0 0.0
2018-Jun-15 23:44N 36°01' W 005°36'0 0.0
2018-Jun-15 23:26N 36°01' W 005°36'0 0.0
2018-Jun-15 22:42N 36°01' W 005°36'0 1.3
2018-Jun-15 22:30N 36°00' W 005°36'510.7
2018-Jun-15 22:00N 35°57' W 005°42'7 5.2
2018-Jun-15 20:35N 35°51' W 005°47'224.8
2018-Jun-15 20:30N 35°53' W 005°46'1121.7
2018-Jun-15 20:01N 35°60' W 005°36'1 1.3
2018-Jun-15 19:31N 36°01' W 005°36'2 3.2
2018-Jun-15 19:00N 35°60' W 005°35'1 1.4
2018-Jun-15 18:30N 35°59' W 005°35'1 2.6
2018-Jun-15 18:00N 35°59' W 005°37'1 0.4
2018-Jun-15 15:23N 35°59' W 005°38'2 5.6
2018-Jun-15 15:00N 36°01' W 005°36'0 0.0
2018-Jun-15 14:12N 36°01' W 005°36'1 6.9
2018-Jun-15 14:01N 35°59' W 005°37'1 0.3
2018-Jun-15 11:19N 35°59' W 005°38'2 0.2
2018-Jun-14 22:36N 36°01' W 005°36'14 5.3
2018-Jun-14 20:02N 35°50' W 005°47'124.3
2018-Jun-14 20:00N 35°51' W 005°47'1122.2
2018-Jun-14 19:30N 35°59' W 005°38'2 0.4
2018-Jun-14 14:12N 36°01' W 005°36'0 0.0
2018-Jun-14 05:55N 36°01' W 005°36'0 0.0
2018-Jun-14 05:25N 36°01' W 005°36'0 0.0
2018-Jun-13 22:38N 36°01' W 005°36'0 2.4
2018-Jun-13 22:30N 36°00' W 005°36'1020.8
2018-Jun-13 22:01N 35°53' W 005°45'1 0.7
2018-Jun-13 20:01N 35°52' W 005°46'115.0
2018-Jun-13 19:56N 35°53' W 005°46'614.3
2018-Jun-13 19:29N 35°58' W 005°41'5 3.5
2018-Jun-13 18:11N 36°00' W 005°36'0 0.0
2018-Jun-13 06:07N 36°01' W 005°36'0 0.0
2018-Jun-13 05:53N 36°01' W 005°36'0 0.0
2018-Jun-13 05:30N 36°01' W 005°36'0 0.0
2018-Jun-13 05:00N 36°01' W 005°36'0 0.0
2018-Jun-13 04:30N 36°01' W 005°36'0 0.0
2018-Jun-13 04:00N 36°01' W 005°36'0 0.0
2018-Jun-13 03:30N 36°01' W 005°36'0 0.0
2018-Jun-13 03:00N 36°01' W 005°36'0 0.0
2018-Jun-13 02:30N 36°01' W 005°36'0 0.0
2018-Jun-13 02:00N 36°01' W 005°36'0 0.0
2018-Jun-13 01:30N 36°01' W 005°36'0 0.0
2018-Jun-13 00:58N 36°01' W 005°36'0 0.0
2018-Jun-13 00:30N 36°01' W 005°36'0 0.0
2018-Jun-13 00:00N 36°01' W 005°36'0 0.0
2018-Jun-12 22:11N 36°01' W 005°36'13 6.0
2018-Jun-12 20:00N 35°51' W 005°47'816.7
2018-Jun-12 19:30N 35°58' W 005°42'5 0.4
2018-Jun-12 05:14N 36°01' W 005°36'0 0.0
2018-Jun-12 05:00N 36°01' W 005°36'0 0.0
2018-Jun-12 04:30N 36°01' W 005°36'0 0.0
2018-Jun-12 04:00N 36°01' W 005°36'0 0.0
2018-Jun-12 03:29N 36°01' W 005°36'0 0.0
2018-Jun-12 02:59N 36°01' W 005°36'0 0.0
2018-Jun-12 02:30N 36°01' W 005°36'0 0.0
2018-Jun-12 02:00N 36°01' W 005°36'0 0.0
2018-Jun-12 01:30N 36°01' W 005°36'0 0.0
2018-Jun-12 01:00N 36°01' W 005°36'0 0.0
2018-Jun-12 00:30N 36°01' W 005°36'0 0.0
2018-Jun-12 00:00N 36°01' W 005°36'0 0.0
2018-Jun-11 23:30N 36°01' W 005°36'0 0.0
2018-Jun-11 23:00N 36°01' W 005°36'0 0.0
2018-Jun-11 22:30N 36°01' W 005°36'0 0.0
2018-Jun-11 22:00N 36°01' W 005°36'815.8
2018-Jun-11 21:31N 35°55' W 005°43'4 2.5
2018-Jun-11 19:57N 35°53' W 005°47'918.8
2018-Jun-11 19:30N 35°58' W 005°39'3 6.3
2018-Jun-11 19:00N 36°01' W 005°36'0 0.0
2018-Jun-11 18:30N 36°01' W 005°36'0 0.0
2018-Jun-11 06:46N 36°01' W 005°36'0 0.0
2018-Jun-11 06:30N 36°01' W 005°36'0 0.0
2018-Jun-11 05:58N 36°01' W 005°36'0 0.0
2018-Jun-11 05:30N 36°01' W 005°36'0 0.0
2018-Jun-11 05:00N 36°01' W 005°36'0 0.0
2018-Jun-11 04:30N 36°01' W 005°36'0 0.0
2018-Jun-11 04:00N 36°01' W 005°36'0 0.0
2018-Jun-11 03:30N 36°01' W 005°36'0 0.0
2018-Jun-11 02:24N 36°01' W 005°36'0 0.0
2018-Jun-11 01:57N 36°01' W 005°36'0 0.0
2018-Jun-11 01:28N 36°01' W 005°36'0 0.0
2018-Jun-11 00:58N 36°01' W 005°36'0 0.0
2018-Jun-11 00:30N 36°01' W 005°36'0 0.0
2018-Jun-10 23:55N 36°01' W 005°36'0 0.0
2018-Jun-10 23:21N 36°01' W 005°36'0 0.0
2018-Jun-10 22:52N 36°01' W 005°36'0 0.0
2018-Jun-10 22:30N 36°01' W 005°36'0 0.4
2018-Jun-10 22:00N 36°00' W 005°36'2 0.8
2018-Jun-10 19:21N 35°59' W 005°38'2 6.2
2018-Jun-10 18:59N 36°01' W 005°36'0 0.0
2018-Jun-10 18:29N 36°01' W 005°36'0 0.2
2018-Jun-10 18:00N 36°01' W 005°36'2 0.8
2018-Jun-10 15:20N 35°59' W 005°38'2 4.2
2018-Jun-10 14:49N 36°01' W 005°36'0 0.0
2018-Jun-10 14:30N 36°01' W 005°36'3 1.1
2018-Jun-10 11:20N 35°59' W 005°40'3 6.7
2018-Jun-10 10:50N 36°01' W 005°36'0 0.0
2018-Jun-10 10:29N 36°01' W 005°36'12 4.6
2018-Jun-10 07:58N 35°53' W 005°47'920.1
2018-Jun-10 07:30N 35°59' W 005°38'2 5.0
2018-Jun-10 07:00N 36°01' W 005°36'0 0.0
2018-Jun-10 06:30N 36°01' W 005°36'0 0.0
2018-Jun-10 06:00N 36°01' W 005°36'0 0.0
2018-Jun-10 05:30N 36°01' W 005°36'0 0.0
2018-Jun-10 05:00N 36°01' W 005°36'0 0.0
2018-Jun-10 04:30N 36°01' W 005°36'0 0.0
2018-Jun-10 02:58N 36°01' W 005°36'0 0.0
2018-Jun-10 02:30N 36°01' W 005°36'0 0.0
2018-Jun-10 02:00N 36°01' W 005°36'0 0.0
2018-Jun-10 01:30N 36°01' W 005°36'0 0.0
2018-Jun-09 22:42N 36°01' W 005°36'0 0.0
2018-Jun-09 22:28N 36°01' W 005°36'0 0.0
2018-Jun-09 22:00N 36°01' W 005°36'713.3
2018-Jun-09 21:30N 35°55' W 005°41'5 3.2
2018-Jun-09 20:04N 35°53' W 005°46'121.0
2018-Jun-09 20:00N 35°54' W 005°46'612.4
2018-Jun-09 19:29N 35°58' W 005°40'4 7.9
2018-Jun-09 19:00N 36°01' W 005°36'0 0.0
2018-Jun-09 18:30N 36°01' W 005°36'1019.5
2018-Jun-09 18:00N 35°54' W 005°45'2 1.0
2018-Jun-09 15:58N 35°52' W 005°47'1212.3
2018-Jun-09 15:00N 36°01' W 005°36'0 0.0
2018-Jun-09 14:31N 36°01' W 005°36'0 0.0
2018-Jun-09 14:00N 36°01' W 005°36'816.6
2018-Jun-09 13:30N 35°54' W 005°43'5 2.3
2018-Jun-09 11:19N 35°59' W 005°40'310.9
2018-Jun-09 11:00N 36°01' W 005°36'0 0.0
2018-Jun-09 10:29N 36°01' W 005°36'0 0.2
2018-Jun-09 10:00N 36°01' W 005°36'0 0.0
2018-Jun-09 05:10N 36°01' W 005°36'0 0.0
2018-Jun-09 04:10N 36°01' W 005°36'0 0.0
2018-Jun-09 02:26N 36°01' W 005°36'0 0.0
2018-Jun-09 02:00N 36°01' W 005°36'  
Track history (hours):
 
Tides and Currents Weather Stations Pressure Air Temp Water Temp Dewpoint Dewpoint Depression Visibility Wind Speed Wind Dir Waves Ship Positions

Algeciras Jet

Last reported at 2018-Jun-19 00:49 UTC. Time now 2018-Jun-21 17:35 UTC.
Position N 36°01' W 005°36'.

Length 60 m; draft 2.2 m.

Type: High speed craft. MMSI: 209936000.

Date/timePositionNaut miles runAvg speedWind from/ knotsBaromVisibWave heightAir tempDewpointWater temp
2018-Jun-19 00:49N 36°01' W 005°36'0 0.0
2018-Jun-18 21:57N 36°01' W 005°36'11 5.2
2018-Jun-18 19:45N 35°53' W 005°46'520.1
2018-Jun-18 19:30N 35°57' W 005°43'713.7
2018-Jun-18 19:01N 36°01' W 005°36'0 0.1
2018-Jun-18 18:15N 36°01' W 005°36'0 0.0
2018-Jun-18 14:14N 36°00' W 005°36'2 0.3
2018-Jun-18 07:54N 35°59' W 005°37'2 1.0
2018-Jun-18 06:00N 36°01' W 005°36'0 0.0
2018-Jun-18 05:30N 36°01' W 005°36'0 0.0
2018-Jun-18 05:00N 36°01' W 005°36'0 0.0
2018-Jun-17 23:31N 36°01' W 005°36'0 0.0
2018-Jun-17 21:59N 36°01' W 005°36'1120.8
2018-Jun-17 21:26N 35°53' W 005°46'1 0.4
2018-Jun-17 19:48N 35°52' W 005°47'619.5
2018-Jun-17 19:30N 35°57' W 005°43'712.5
2018-Jun-17 18:58N 36°01' W 005°36'0 0.0
2018-Jun-17 18:30N 36°01' W 005°36'3 1.0
2018-Jun-17 15:22N 35°59' W 005°39'3 9.0
2018-Jun-17 15:00N 36°01' W 005°36'0 0.0
2018-Jun-17 14:31N 36°01' W 005°36'2 3.7
2018-Jun-17 14:01N 35°59' W 005°38'11 5.6
2018-Jun-17 12:02N 35°51' W 005°47'122.8
2018-Jun-17 11:59N 35°52' W 005°47'1218.4
2018-Jun-17 11:19N 36°01' W 005°36'0 0.0
2018-Jun-17 10:21N 36°01' W 005°36'13 5.8
2018-Jun-17 08:04N 35°51' W 005°47'221.2
2018-Jun-17 07:59N 35°53' W 005°47'919.2
2018-Jun-17 07:30N 35°59' W 005°38'3 5.0
2018-Jun-17 07:00N 36°01' W 005°36'0 0.0
2018-Jun-17 06:31N 36°01' W 005°36'0 0.0
2018-Jun-17 05:57N 36°01' W 005°36'0 0.0
2018-Jun-17 05:27N 36°01' W 005°36'0 0.0
2018-Jun-17 05:00N 36°01' W 005°36'0 0.0
2018-Jun-17 04:21N 36°01' W 005°36'0 0.0
2018-Jun-17 03:57N 36°01' W 005°36'0 0.0
2018-Jun-17 03:27N 36°01' W 005°36'0 0.0
2018-Jun-17 02:57N 36°01' W 005°36'0 0.0
2018-Jun-17 02:27N 36°01' W 005°36'0 0.0
2018-Jun-17 01:57N 36°01' W 005°36'0 0.0
2018-Jun-17 01:27N 36°01' W 005°36'0 0.0
2018-Jun-17 00:51N 36°01' W 005°36'0 0.0
2018-Jun-17 00:26N 36°01' W 005°36'0 0.0
2018-Jun-16 23:57N 36°01' W 005°36'0 0.0
2018-Jun-16 23:27N 36°01' W 005°36'0 0.0
2018-Jun-16 22:57N 36°01' W 005°36'0 0.0
2018-Jun-16 22:27N 36°01' W 005°36'2 4.3
2018-Jun-16 22:00N 35°59' W 005°37'11 4.7
2018-Jun-16 19:45N 35°52' W 005°47'621.6
2018-Jun-16 19:30N 35°57' W 005°44'714.6
2018-Jun-16 19:00N 36°01' W 005°36'0 0.0
2018-Jun-16 18:31N 36°01' W 005°36'7 2.3
2018-Jun-16 15:39N 35°57' W 005°43'322.4
2018-Jun-16 15:30N 35°58' W 005°39'3 6.8
2018-Jun-16 15:00N 36°01' W 005°36'0 0.0
2018-Jun-16 14:16N 36°01' W 005°36'0 0.0
2018-Jun-16 00:20N 36°01' W 005°36'0 0.0
2018-Jun-15 23:44N 36°01' W 005°36'0 0.0
2018-Jun-15 23:26N 36°01' W 005°36'0 0.0
2018-Jun-15 22:42N 36°01' W 005°36'0 1.3
2018-Jun-15 22:30N 36°00' W 005°36'510.7
2018-Jun-15 22:00N 35°57' W 005°42'7 5.2
2018-Jun-15 20:35N 35°51' W 005°47'224.8
2018-Jun-15 20:30N 35°53' W 005°46'1121.7
2018-Jun-15 20:01N 35°60' W 005°36'1 1.3
2018-Jun-15 19:31N 36°01' W 005°36'2 3.2
2018-Jun-15 19:00N 35°60' W 005°35'1 1.4
2018-Jun-15 18:30N 35°59' W 005°35'1 2.6
2018-Jun-15 18:00N 35°59' W 005°37'1 0.4
2018-Jun-15 15:23N 35°59' W 005°38'2 5.6
2018-Jun-15 15:00N 36°01' W 005°36'0 0.0
2018-Jun-15 14:12N 36°01' W 005°36'1 6.9
2018-Jun-15 14:01N 35°59' W 005°37'1 0.3
2018-Jun-15 11:19N 35°59' W 005°38'2 0.2
2018-Jun-14 22:36N 36°01' W 005°36'14 5.3
2018-Jun-14 20:02N 35°50' W 005°47'124.3
2018-Jun-14 20:00N 35°51' W 005°47'1122.2
2018-Jun-14 19:30N 35°59' W 005°38'2 0.4
2018-Jun-14 14:12N 36°01' W 005°36'0 0.0
2018-Jun-14 05:55N 36°01' W 005°36'0 0.0
2018-Jun-14 05:25N 36°01' W 005°36'0 0.0
2018-Jun-13 22:38N 36°01' W 005°36'0 2.4
2018-Jun-13 22:30N 36°00' W 005°36'1020.8
2018-Jun-13 22:01N 35°53' W 005°45'1 0.7
2018-Jun-13 20:01N 35°52' W 005°46'115.0
2018-Jun-13 19:56N 35°53' W 005°46'614.3
2018-Jun-13 19:29N 35°58' W 005°41'5 3.5
2018-Jun-13 18:11N 36°00' W 005°36'0 0.0
2018-Jun-13 06:07N 36°01' W 005°36'0 0.0
2018-Jun-13 05:53N 36°01' W 005°36'0 0.0
2018-Jun-13 05:30N 36°01' W 005°36'0 0.0
2018-Jun-13 05:00N 36°01' W 005°36'0 0.0
2018-Jun-13 04:30N 36°01' W 005°36'0 0.0
2018-Jun-13 04:00N 36°01' W 005°36'0 0.0
2018-Jun-13 03:30N 36°01' W 005°36'0 0.0
2018-Jun-13 03:00N 36°01' W 005°36'0 0.0
2018-Jun-13 02:30N 36°01' W 005°36'0 0.0
2018-Jun-13 02:00N 36°01' W 005°36'0 0.0
2018-Jun-13 01:30N 36°01' W 005°36'0 0.0
2018-Jun-13 00:58N 36°01' W 005°36'0 0.0
2018-Jun-13 00:30N 36°01' W 005°36'0 0.0
2018-Jun-13 00:00N 36°01' W 005°36'0 0.0
2018-Jun-12 22:11N 36°01' W 005°36'13 6.0
2018-Jun-12 20:00N 35°51' W 005°47'816.7
2018-Jun-12 19:30N 35°58' W 005°42'5 0.4
2018-Jun-12 05:14N 36°01' W 005°36'0 0.0
2018-Jun-12 05:00N 36°01' W 005°36'0 0.0
2018-Jun-12 04:30N 36°01' W 005°36'0 0.0
2018-Jun-12 04:00N 36°01' W 005°36'0 0.0
2018-Jun-12 03:29N 36°01' W 005°36'0 0.0
2018-Jun-12 02:59N 36°01' W 005°36'0 0.0
2018-Jun-12 02:30N 36°01' W 005°36'0 0.0
2018-Jun-12 02:00N 36°01' W 005°36'0 0.0
2018-Jun-12 01:30N 36°01' W 005°36'0 0.0
2018-Jun-12 01:00N 36°01' W 005°36'0 0.0
2018-Jun-12 00:30N 36°01' W 005°36'0 0.0
2018-Jun-12 00:00N 36°01' W 005°36'0 0.0
2018-Jun-11 23:30N 36°01' W 005°36'0 0.0
2018-Jun-11 23:00N 36°01' W 005°36'0 0.0
2018-Jun-11 22:30N 36°01' W 005°36'0 0.0
2018-Jun-11 22:00N 36°01' W 005°36'815.8
2018-Jun-11 21:31N 35°55' W 005°43'4 2.5
2018-Jun-11 19:57N 35°53' W 005°47'918.8
2018-Jun-11 19:30N 35°58' W 005°39'3 6.3
2018-Jun-11 19:00N 36°01' W 005°36'0 0.0
2018-Jun-11 18:30N 36°01' W 005°36'0 0.0
2018-Jun-11 06:46N 36°01' W 005°36'0 0.0
2018-Jun-11 06:30N 36°01' W 005°36'0 0.0
2018-Jun-11 05:58N 36°01' W 005°36'0 0.0
2018-Jun-11 05:30N 36°01' W 005°36'0 0.0
2018-Jun-11 05:00N 36°01' W 005°36'0 0.0
2018-Jun-11 04:30N 36°01' W 005°36'0 0.0
2018-Jun-11 04:00N 36°01' W 005°36'0 0.0
2018-Jun-11 03:30N 36°01' W 005°36'0 0.0
2018-Jun-11 02:24N 36°01' W 005°36'0 0.0
2018-Jun-11 01:57N 36°01' W 005°36'0 0.0
2018-Jun-11 01:28N 36°01' W 005°36'0 0.0
2018-Jun-11 00:58N 36°01' W 005°36'0 0.0
2018-Jun-11 00:30N 36°01' W 005°36'0 0.0
2018-Jun-10 23:55N 36°01' W 005°36'0 0.0
2018-Jun-10 23:21N 36°01' W 005°36'0 0.0
2018-Jun-10 22:52N 36°01' W 005°36'0 0.0
2018-Jun-10 22:30N 36°01' W 005°36'0 0.4
2018-Jun-10 22:00N 36°00' W 005°36'2 0.8
2018-Jun-10 19:21N 35°59' W 005°38'2 6.2
2018-Jun-10 18:59N 36°01' W 005°36'0 0.0
2018-Jun-10 18:29N 36°01' W 005°36'0 0.2
2018-Jun-10 18:00N 36°01' W 005°36'2 0.8
2018-Jun-10 15:20N 35°59' W 005°38'2 4.2
2018-Jun-10 14:49N 36°01' W 005°36'0 0.0
2018-Jun-10 14:30N 36°01' W 005°36'3 1.1
2018-Jun-10 11:20N 35°59' W 005°40'3 6.7
2018-Jun-10 10:50N 36°01' W 005°36'0 0.0
2018-Jun-10 10:29N 36°01' W 005°36'12 4.6
2018-Jun-10 07:58N 35°53' W 005°47'920.1
2018-Jun-10 07:30N 35°59' W 005°38'2 5.0
2018-Jun-10 07:00N 36°01' W 005°36'0 0.0
2018-Jun-10 06:30N 36°01' W 005°36'0 0.0
2018-Jun-10 06:00N 36°01' W 005°36'0 0.0
2018-Jun-10 05:30N 36°01' W 005°36'0 0.0
2018-Jun-10 05:00N 36°01' W 005°36'0 0.0
2018-Jun-10 04:30N 36°01' W 005°36'0 0.0
2018-Jun-10 02:58N 36°01' W 005°36'0 0.0
2018-Jun-10 02:30N 36°01' W 005°36'0 0.0
2018-Jun-10 02:00N 36°01' W 005°36'0 0.0
2018-Jun-10 01:30N 36°01' W 005°36'0 0.0
2018-Jun-09 22:42N 36°01' W 005°36'0 0.0
2018-Jun-09 22:28N 36°01' W 005°36'0 0.0
2018-Jun-09 22:00N 36°01' W 005°36'713.3
2018-Jun-09 21:30N 35°55' W 005°41'5 3.2
2018-Jun-09 20:04N 35°53' W 005°46'121.0
2018-Jun-09 20:00N 35°54' W 005°46'612.4
2018-Jun-09 19:29N 35°58' W 005°40'4 7.9
2018-Jun-09 19:00N 36°01' W 005°36'0 0.0
2018-Jun-09 18:30N 36°01' W 005°36'1019.5
2018-Jun-09 18:00N 35°54' W 005°45'2 1.0
2018-Jun-09 15:58N 35°52' W 005°47'1212.3
2018-Jun-09 15:00N 36°01' W 005°36'0 0.0
2018-Jun-09 14:31N 36°01' W 005°36'0 0.0
2018-Jun-09 14:00N 36°01' W 005°36'816.6
2018-Jun-09 13:30N 35°54' W 005°43'5 2.3
2018-Jun-09 11:19N 35°59' W 005°40'310.9
2018-Jun-09 11:00N 36°01' W 005°36'0 0.0
2018-Jun-09 10:29N 36°01' W 005°36'0 0.2
2018-Jun-09 10:00N 36°01' W 005°36'0 0.0
2018-Jun-09 05:10N 36°01' W 005°36'0 0.0
2018-Jun-09 04:10N 36°01' W 005°36'0 0.0
2018-Jun-09 02:26N 36°01' W 005°36'0 0.0
2018-Jun-09 02:00N 36°01' W 005°36'  

Dump ship's entire track history